sensor_id;sensor_type;location;lat;lon;timestamp;pressure;altitude;pressure_sealevel;temperature;humidity
63006;BME280;53704;52.532;6.426;2024-01-30T00:00:42;102648.88;;;4.42;100.00
63006;BME280;53704;52.532;6.426;2024-01-30T00:03:07;102649.44;;;4.48;100.00
63006;BME280;53704;52.532;6.426;2024-01-30T00:05:33;102650.19;;;4.50;100.00
63006;BME280;53704;52.532;6.426;2024-01-30T00:07:58;102647.78;;;4.46;100.00
63006;BME280;53704;52.532;6.426;2024-01-30T00:10:23;102648.19;;;4.38;100.00
63006;BME280;53704;52.532;6.426;2024-01-30T00:12:49;102653.09;;;4.46;100.00
63006;BME280;53704;52.532;6.426;2024-01-30T00:15:15;102651.16;;;4.49;100.00
63006;BME280;53704;52.532;6.426;2024-01-30T00:17:40;102644.63;;;4.55;100.00
63006;BME280;53704;52.532;6.426;2024-01-30T00:20:06;102645.09;;;4.46;100.00
63006;BME280;53704;52.532;6.426;2024-01-30T00:22:32;102645.69;;;4.35;100.00
63006;BME280;53704;52.532;6.426;2024-01-30T00:24:58;102647.38;;;4.36;100.00
63006;BME280;53704;52.532;6.426;2024-01-30T00:27:23;102646.69;;;4.32;100.00
63006;BME280;53704;52.532;6.426;2024-01-30T00:29:48;102634.22;;;4.33;100.00
63006;BME280;53704;52.532;6.426;2024-01-30T00:32:14;102638.06;;;4.27;100.00
63006;BME280;53704;52.532;6.426;2024-01-30T00:34:39;102635.72;;;4.39;100.00
63006;BME280;53704;52.532;6.426;2024-01-30T00:37:05;102639.22;;;4.39;100.00
63006;BME280;53704;52.532;6.426;2024-01-30T00:39:30;102641.66;;;4.44;100.00
63006;BME280;53704;52.532;6.426;2024-01-30T00:41:56;102634.59;;;4.43;100.00
63006;BME280;53704;52.532;6.426;2024-01-30T00:44:21;102637.09;;;4.46;100.00
63006;BME280;53704;52.532;6.426;2024-01-30T00:46:47;102637.91;;;4.48;100.00
63006;BME280;53704;52.532;6.426;2024-01-30T00:49:12;102639.53;;;4.50;100.00
63006;BME280;53704;52.532;6.426;2024-01-30T00:51:37;102637.19;;;4.44;100.00
63006;BME280;53704;52.532;6.426;2024-01-30T00:54:03;102631.53;;;4.50;100.00
63006;BME280;53704;52.532;6.426;2024-01-30T00:56:28;102636.09;;;4.48;100.00
63006;BME280;53704;52.532;6.426;2024-01-30T00:58:54;102633.50;;;4.47;100.00
63006;BME280;53704;52.532;6.426;2024-01-30T01:01:19;102635.78;;;4.55;100.00
63006;BME280;53704;52.532;6.426;2024-01-30T01:03:48;102632.72;;;4.45;100.00
63006;BME280;53704;52.532;6.426;2024-01-30T01:06:13;102643.41;;;4.45;100.00
63006;BME280;53704;52.532;6.426;2024-01-30T01:08:39;102629.69;;;4.35;100.00
63006;BME280;53704;52.532;6.426;2024-01-30T01:11:05;102629.91;;;4.48;100.00
63006;BME280;53704;52.532;6.426;2024-01-30T01:13:30;102629.03;;;4.30;100.00
63006;BME280;53704;52.532;6.426;2024-01-30T01:15:55;102631.22;;;4.39;100.00
63006;BME280;53704;52.532;6.426;2024-01-30T01:18:21;102632.88;;;4.42;100.00
63006;BME280;53704;52.532;6.426;2024-01-30T01:20:46;102629.59;;;4.37;100.00
63006;BME280;53704;52.532;6.426;2024-01-30T01:23:12;102620.00;;;4.50;100.00
63006;BME280;53704;52.532;6.426;2024-01-30T01:25:37;102634.59;;;4.43;100.00
63006;BME280;53704;52.532;6.426;2024-01-30T01:28:03;102631.16;;;4.41;100.00
63006;BME280;53704;52.532;6.426;2024-01-30T01:30:29;102635.47;;;4.43;100.00
63006;BME280;53704;52.532;6.426;2024-01-30T01:32:55;102633.59;;;4.45;100.00
63006;BME280;53704;52.532;6.426;2024-01-30T01:35:25;102624.66;;;4.46;100.00
63006;BME280;53704;52.532;6.426;2024-01-30T01:37:51;102626.44;;;4.46;100.00
63006;BME280;53704;52.532;6.426;2024-01-30T01:40:26;102624.88;;;4.42;100.00
63006;BME280;53704;52.532;6.426;2024-01-30T01:42:53;102630.06;;;4.45;100.00
63006;BME280;53704;52.532;6.426;2024-01-30T01:45:20;102629.75;;;4.51;100.00
63006;BME280;53704;52.532;6.426;2024-01-30T01:47:48;102624.13;;;4.40;100.00
63006;BME280;53704;52.532;6.426;2024-01-30T01:50:16;102620.94;;;4.49;100.00
63006;BME280;53704;52.532;6.426;2024-01-30T01:52:44;102615.22;;;4.39;100.00
63006;BME280;53704;52.532;6.426;2024-01-30T01:55:11;102615.00;;;4.44;100.00
63006;BME280;53704;52.532;6.426;2024-01-30T01:57:37;102613.28;;;4.25;100.00
63006;BME280;53704;52.532;6.426;2024-01-30T02:00:03;102611.78;;;4.20;100.00
63006;BME280;53704;52.532;6.426;2024-01-30T02:02:35;102617.34;;;4.32;100.00
63006;BME280;53704;52.532;6.426;2024-01-30T02:05:01;102615.09;;;4.25;100.00
63006;BME280;53704;52.532;6.426;2024-01-30T02:07:27;102611.25;;;4.30;100.00
63006;BME280;53704;52.532;6.426;2024-01-30T02:09:53;102611.88;;;4.18;100.00
63006;BME280;53704;52.532;6.426;2024-01-30T02:12:19;102599.31;;;4.03;100.00
63006;BME280;53704;52.532;6.426;2024-01-30T02:14:48;102603.72;;;4.04;100.00
63006;BME280;53704;52.532;6.426;2024-01-30T02:17:15;102601.28;;;3.99;100.00
63006;BME280;53704;52.532;6.426;2024-01-30T02:19:41;102587.56;;;4.07;100.00
63006;BME280;53704;52.532;6.426;2024-01-30T02:22:07;102591.00;;;3.91;100.00
63006;BME280;53704;52.532;6.426;2024-01-30T02:24:32;102587.50;;;4.08;100.00
63006;BME280;53704;52.532;6.426;2024-01-30T02:26:58;102587.25;;;3.95;100.00
63006;BME280;53704;52.532;6.426;2024-01-30T02:29:23;102585.38;;;3.97;100.00
63006;BME280;53704;52.532;6.426;2024-01-30T02:31:49;102590.22;;;3.72;100.00
63006;BME280;53704;52.532;6.426;2024-01-30T02:34:14;102589.91;;;3.78;100.00
63006;BME280;53704;52.532;6.426;2024-01-30T02:36:43;102583.16;;;3.71;100.00
63006;BME280;53704;52.532;6.426;2024-01-30T02:39:08;102576.59;;;3.78;100.00
63006;BME280;53704;52.532;6.426;2024-01-30T02:41:35;102580.25;;;3.75;100.00
63006;BME280;53704;52.532;6.426;2024-01-30T02:44:00;102573.94;;;3.59;100.00
63006;BME280;53704;52.532;6.426;2024-01-30T02:46:25;102574.00;;;3.76;100.00
63006;BME280;53704;52.532;6.426;2024-01-30T02:48:51;102570.94;;;3.84;100.00
63006;BME280;53704;52.532;6.426;2024-01-30T02:51:16;102562.63;;;3.73;100.00
63006;BME280;53704;52.532;6.426;2024-01-30T02:53:42;102571.38;;;3.57;100.00
63006;BME280;53704;52.532;6.426;2024-01-30T02:56:07;102564.63;;;3.50;100.00
63006;BME280;53704;52.532;6.426;2024-01-30T02:58:35;102559.41;;;3.66;100.00
63006;BME280;53704;52.532;6.426;2024-01-30T03:01:02;102561.06;;;3.69;100.00
63006;BME280;53704;52.532;6.426;2024-01-30T03:03:27;102570.22;;;3.63;100.00
63006;BME280;53704;52.532;6.426;2024-01-30T03:05:52;102562.00;;;3.68;100.00
63006;BME280;53704;52.532;6.426;2024-01-30T03:08:18;102565.72;;;3.63;100.00
63006;BME280;53704;52.532;6.426;2024-01-30T03:10:43;102560.56;;;3.60;100.00
63006;BME280;53704;52.532;6.426;2024-01-30T03:13:09;102556.56;;;3.52;100.00
63006;BME280;53704;52.532;6.426;2024-01-30T03:15:34;102552.25;;;3.67;100.00
63006;BME280;53704;52.532;6.426;2024-01-30T03:18:00;102556.00;;;3.45;100.00
63006;BME280;53704;52.532;6.426;2024-01-30T03:20:25;102552.53;;;3.43;100.00
63006;BME280;53704;52.532;6.426;2024-01-30T03:22:50;102553.41;;;3.43;100.00
63006;BME280;53704;52.532;6.426;2024-01-30T03:25:16;102556.78;;;3.47;100.00
63006;BME280;53704;52.532;6.426;2024-01-30T03:27:41;102564.84;;;3.46;100.00
63006;BME280;53704;52.532;6.426;2024-01-30T03:30:07;102557.63;;;3.48;100.00
63006;BME280;53704;52.532;6.426;2024-01-30T03:32:33;102564.56;;;3.52;100.00
63006;BME280;53704;52.532;6.426;2024-01-30T03:34:59;102554.06;;;3.49;100.00
63006;BME280;53704;52.532;6.426;2024-01-30T03:37:25;102548.34;;;3.56;100.00
63006;BME280;53704;52.532;6.426;2024-01-30T03:39:50;102543.47;;;3.47;100.00
63006;BME280;53704;52.532;6.426;2024-01-30T03:42:15;102538.63;;;3.55;100.00
63006;BME280;53704;52.532;6.426;2024-01-30T03:44:41;102525.53;;;3.51;100.00
63006;BME280;53704;52.532;6.426;2024-01-30T03:47:06;102530.00;;;3.50;100.00
63006;BME280;53704;52.532;6.426;2024-01-30T03:49:32;102533.91;;;3.60;100.00
63006;BME280;53704;52.532;6.426;2024-01-30T03:51:57;102532.84;;;3.65;100.00
63006;BME280;53704;52.532;6.426;2024-01-30T03:54:23;102533.31;;;3.73;100.00
63006;BME280;53704;52.532;6.426;2024-01-30T03:56:48;102520.97;;;3.72;100.00
63006;BME280;53704;52.532;6.426;2024-01-30T03:59:14;102524.56;;;3.71;100.00
63006;BME280;53704;52.532;6.426;2024-01-30T04:01:39;102521.97;;;3.87;100.00
63006;BME280;53704;52.532;6.426;2024-01-30T04:04:05;102525.47;;;3.87;100.00
63006;BME280;53704;52.532;6.426;2024-01-30T04:06:30;102519.69;;;3.79;100.00
63006;BME280;53704;52.532;6.426;2024-01-30T04:08:55;102509.50;;;3.87;100.00
63006;BME280;53704;52.532;6.426;2024-01-30T04:11:21;102509.50;;;3.87;100.00
63006;BME280;53704;52.532;6.426;2024-01-30T04:13:47;102501.09;;;3.95;100.00
63006;BME280;53704;52.532;6.426;2024-01-30T04:16:20;102506.91;;;3.86;100.00
63006;BME280;53704;52.532;6.426;2024-01-30T04:18:47;102507.31;;;3.95;100.00
63006;BME280;53704;52.532;6.426;2024-01-30T04:21:13;102498.38;;;3.96;100.00
63006;BME280;53704;52.532;6.426;2024-01-30T04:23:42;102500.94;;;3.98;100.00
63006;BME280;53704;52.532;6.426;2024-01-30T04:26:07;102492.72;;;4.03;100.00
63006;BME280;53704;52.532;6.426;2024-01-30T04:28:33;102493.31;;;4.08;100.00
63006;BME280;53704;52.532;6.426;2024-01-30T04:30:58;102487.16;;;4.07;100.00
63006;BME280;53704;52.532;6.426;2024-01-30T04:33:24;102480.72;;;4.11;100.00
63006;BME280;53704;52.532;6.426;2024-01-30T04:35:49;102481.09;;;4.21;100.00
63006;BME280;53704;52.532;6.426;2024-01-30T04:38:15;102493.66;;;4.19;100.00
63006;BME280;53704;52.532;6.426;2024-01-30T04:40:40;102491.00;;;4.19;100.00
63006;BME280;53704;52.532;6.426;2024-01-30T04:43:06;102495.50;;;4.17;100.00
63006;BME280;53704;52.532;6.426;2024-01-30T04:45:31;102497.78;;;4.25;100.00
63006;BME280;53704;52.532;6.426;2024-01-30T04:47:57;102492.94;;;4.15;100.00
63006;BME280;53704;52.532;6.426;2024-01-30T04:50:23;102488.13;;;4.22;100.00
63006;BME280;53704;52.532;6.426;2024-01-30T04:52:48;102493.94;;;4.30;100.00
63006;BME280;53704;52.532;6.426;2024-01-30T04:55:14;102492.25;;;4.45;100.00
63006;BME280;53704;52.532;6.426;2024-01-30T04:57:42;102483.38;;;4.45;100.00
63006;BME280;53704;52.532;6.426;2024-01-30T05:00:08;102491.88;;;4.35;100.00
63006;BME280;53704;52.532;6.426;2024-01-30T05:02:34;102487.06;;;4.42;100.00
63006;BME280;53704;52.532;6.426;2024-01-30T05:04:59;102474.25;;;4.49;100.00
63006;BME280;53704;52.532;6.426;2024-01-30T05:07:25;102489.75;;;4.58;100.00
63006;BME280;53704;52.532;6.426;2024-01-30T05:09:50;102495.81;;;4.62;100.00
63006;BME280;53704;52.532;6.426;2024-01-30T05:12:16;102496.66;;;4.62;100.00
63006;BME280;53704;52.532;6.426;2024-01-30T05:14:41;102491.69;;;4.72;100.00
63006;BME280;53704;52.532;6.426;2024-01-30T05:17:07;102489.84;;;4.72;100.00
63006;BME280;53704;52.532;6.426;2024-01-30T05:19:34;102486.50;;;4.85;100.00
63006;BME280;53704;52.532;6.426;2024-01-30T05:22:00;102490.81;;;4.87;100.00
63006;BME280;53704;52.532;6.426;2024-01-30T05:24:25;102481.34;;;4.98;100.00
63006;BME280;53704;52.532;6.426;2024-01-30T05:26:50;102481.00;;;5.04;100.00
63006;BME280;53704;52.532;6.426;2024-01-30T05:29:16;102482.56;;;5.08;100.00
63006;BME280;53704;52.532;6.426;2024-01-30T05:31:42;102471.78;;;5.10;100.00
63006;BME280;53704;52.532;6.426;2024-01-30T05:34:08;102472.81;;;5.07;100.00
63006;BME280;53704;52.532;6.426;2024-01-30T05:36:34;102472.72;;;5.08;100.00
63006;BME280;53704;52.532;6.426;2024-01-30T05:38:59;102458.69;;;5.21;100.00
63006;BME280;53704;52.532;6.426;2024-01-30T05:41:25;102453.34;;;5.21;100.00
63006;BME280;53704;52.532;6.426;2024-01-30T05:43:53;102447.06;;;5.22;100.00
63006;BME280;53704;52.532;6.426;2024-01-30T05:46:18;102456.59;;;5.26;100.00
63006;BME280;53704;52.532;6.426;2024-01-30T05:48:44;102463.00;;;5.23;100.00
63006;BME280;53704;52.532;6.426;2024-01-30T05:51:09;102471.00;;;5.23;100.00
63006;BME280;53704;52.532;6.426;2024-01-30T05:53:35;102457.75;;;5.22;100.00
63006;BME280;53704;52.532;6.426;2024-01-30T05:56:04;102465.56;;;5.25;100.00
63006;BME280;53704;52.532;6.426;2024-01-30T05:58:30;102470.72;;;5.28;100.00
63006;BME280;53704;52.532;6.426;2024-01-30T06:00:59;102471.25;;;5.35;100.00
63006;BME280;53704;52.532;6.426;2024-01-30T06:03:24;102476.56;;;5.35;100.00
63006;BME280;53704;52.532;6.426;2024-01-30T06:05:49;102482.09;;;5.32;100.00
63006;BME280;53704;52.532;6.426;2024-01-30T06:08:22;102474.75;;;5.35;100.00
63006;BME280;53704;52.532;6.426;2024-01-30T06:10:50;102484.91;;;5.44;100.00
63006;BME280;53704;52.532;6.426;2024-01-30T06:13:16;102480.41;;;5.45;100.00
63006;BME280;53704;52.532;6.426;2024-01-30T06:15:42;102482.41;;;5.41;100.00
63006;BME280;53704;52.532;6.426;2024-01-30T06:18:07;102474.59;;;5.38;100.00
63006;BME280;53704;52.532;6.426;2024-01-30T06:20:33;102481.56;;;5.41;100.00
63006;BME280;53704;52.532;6.426;2024-01-30T06:22:59;102479.38;;;5.48;100.00
63006;BME280;53704;52.532;6.426;2024-01-30T06:25:24;102472.13;;;5.50;100.00
63006;BME280;53704;52.532;6.426;2024-01-30T06:27:50;102464.31;;;5.47;100.00
63006;BME280;53704;52.532;6.426;2024-01-30T06:30:15;102459.53;;;5.52;100.00
63006;BME280;53704;52.532;6.426;2024-01-30T06:32:40;102450.09;;;5.46;100.00
63006;BME280;53704;52.532;6.426;2024-01-30T06:35:06;102454.81;;;5.57;100.00
63006;BME280;53704;52.532;6.426;2024-01-30T06:37:32;102459.53;;;5.52;100.00
63006;BME280;53704;52.532;6.426;2024-01-30T06:39:57;102451.72;;;5.49;100.00
63006;BME280;53704;52.532;6.426;2024-01-30T06:42:22;102454.19;;;5.52;100.00
63006;BME280;53704;52.532;6.426;2024-01-30T06:44:48;102454.81;;;5.57;100.00
63006;BME280;53704;52.532;6.426;2024-01-30T06:47:13;102463.41;;;5.62;100.00
63006;BME280;53704;52.532;6.426;2024-01-30T06:49:39;102444.69;;;5.62;100.00
63006;BME280;53704;52.532;6.426;2024-01-30T06:52:07;102459.69;;;5.65;100.00
63006;BME280;53704;52.532;6.426;2024-01-30T06:54:33;102462.81;;;5.57;100.00
63006;BME280;53704;52.532;6.426;2024-01-30T06:56:59;102454.19;;;5.52;100.00
63006;BME280;53704;52.532;6.426;2024-01-30T06:59:24;102450.63;;;5.67;100.00
63006;BME280;53704;52.532;6.426;2024-01-30T07:01:50;102451.59;;;5.66;100.00
63006;BME280;53704;52.532;6.426;2024-01-30T07:04:16;102449.09;;;5.63;100.00
63006;BME280;53704;52.532;6.426;2024-01-30T07:06:41;102451.28;;;5.71;100.00
63006;BME280;53704;52.532;6.426;2024-01-30T07:09:07;102452.00;;;5.74;100.00
63006;BME280;53704;52.532;6.426;2024-01-30T07:11:33;102459.53;;;5.82;100.00
63006;BME280;53704;52.532;6.426;2024-01-30T07:13:59;102451.19;;;5.72;100.00
63006;BME280;53704;52.532;6.426;2024-01-30T07:16:25;102456.09;;;5.80;100.00
63006;BME280;53704;52.532;6.426;2024-01-30T07:18:53;102457.81;;;5.81;100.00
63006;BME280;53704;52.532;6.426;2024-01-30T07:21:19;102467.66;;;5.80;100.00
63006;BME280;53704;52.532;6.426;2024-01-30T07:23:46;102463.06;;;5.83;100.00
63006;BME280;53704;52.532;6.426;2024-01-30T07:26:12;102453.91;;;5.87;100.00
63006;BME280;53704;52.532;6.426;2024-01-30T07:28:37;102453.44;;;5.94;100.00
63006;BME280;53704;52.532;6.426;2024-01-30T07:31:03;102460.78;;;5.91;100.00
63006;BME280;53704;52.532;6.426;2024-01-30T07:33:29;102465.59;;;6.00;100.00
63006;BME280;53704;52.532;6.426;2024-01-30T07:35:54;102470.28;;;5.96;100.00
63006;BME280;53704;52.532;6.426;2024-01-30T07:38:20;102456.38;;;6.06;100.00
63006;BME280;53704;52.532;6.426;2024-01-30T07:40:46;102468.75;;;6.07;100.00
63006;BME280;53704;52.532;6.426;2024-01-30T07:43:11;102484.34;;;6.14;100.00
63006;BME280;53704;52.532;6.426;2024-01-30T07:45:37;102474.47;;;6.15;100.00
63006;BME280;53704;52.532;6.426;2024-01-30T07:48:05;102468.56;;;6.24;100.00
63006;BME280;53704;52.532;6.426;2024-01-30T07:50:30;102476.69;;;6.08;100.00
63006;BME280;53704;52.532;6.426;2024-01-30T07:52:56;102480.91;;;6.12;100.00
63006;BME280;53704;52.532;6.426;2024-01-30T07:55:23;102466.09;;;6.21;100.00
63006;BME280;53704;52.532;6.426;2024-01-30T07:57:52;102475.28;;;6.31;100.00
63006;BME280;53704;52.532;6.426;2024-01-30T08:00:20;102472.78;;;6.28;100.00
63006;BME280;53704;52.532;6.426;2024-01-30T08:02:46;102468.28;;;6.29;100.00
63006;BME280;53704;52.532;6.426;2024-01-30T08:05:12;102471.63;;;6.32;100.00
63006;BME280;53704;52.532;6.426;2024-01-30T08:07:39;102475.00;;;6.36;100.00
63006;BME280;53704;52.532;6.426;2024-01-30T08:10:07;102476.50;;;6.40;100.00
63006;BME280;53704;52.532;6.426;2024-01-30T08:12:33;102476.50;;;6.40;100.00
63006;BME280;53704;52.532;6.426;2024-01-30T08:14:58;102472.59;;;6.46;100.00
63006;BME280;53704;52.532;6.426;2024-01-30T08:17:24;102498.88;;;6.39;100.00
63006;BME280;53704;52.532;6.426;2024-01-30T08:19:49;102502.97;;;6.45;100.00
63006;BME280;53704;52.532;6.426;2024-01-30T08:22:15;102498.13;;;6.51;100.00
63006;BME280;53704;52.532;6.426;2024-01-30T08:24:41;102497.91;;;6.55;100.00
63006;BME280;53704;52.532;6.426;2024-01-30T08:27:07;102493.88;;;6.62;100.00
63006;BME280;53704;52.532;6.426;2024-01-30T08:29:35;102497.91;;;6.69;100.00
63006;BME280;53704;52.532;6.426;2024-01-30T08:32:01;102480.31;;;6.65;100.00
63006;BME280;53704;52.532;6.426;2024-01-30T08:34:26;102498.56;;;6.73;100.00
63006;BME280;53704;52.532;6.426;2024-01-30T08:36:52;102495.44;;;6.66;100.00
63006;BME280;53704;52.532;6.426;2024-01-30T08:39:17;102498.47;;;6.74;100.00
63006;BME280;53704;52.532;6.426;2024-01-30T08:41:43;102479.06;;;6.70;100.00
63006;BME280;53704;52.532;6.426;2024-01-30T08:44:08;102491.19;;;6.76;100.00
63006;BME280;53704;52.532;6.426;2024-01-30T08:46:36;102480.47;;;6.76;100.00
63006;BME280;53704;52.532;6.426;2024-01-30T08:49:01;102490.25;;;6.77;100.00
63006;BME280;53704;52.532;6.426;2024-01-30T08:51:26;102491.00;;;6.79;100.00
63006;BME280;53704;52.532;6.426;2024-01-30T08:53:52;102489.25;;;6.78;100.00
63006;BME280;53704;52.532;6.426;2024-01-30T08:56:19;102493.47;;;6.82;100.00
63006;BME280;53704;52.532;6.426;2024-01-30T08:58:44;102508.00;;;6.93;100.00
63006;BME280;53704;52.532;6.426;2024-01-30T09:01:09;102498.25;;;6.92;100.00
63006;BME280;53704;52.532;6.426;2024-01-30T09:03:35;102502.75;;;6.91;100.00
63006;BME280;53704;52.532;6.426;2024-01-30T09:06:01;102503.78;;;6.88;100.00
63006;BME280;53704;52.532;6.426;2024-01-30T09:08:27;102509.69;;;6.94;100.00
63006;BME280;53704;52.532;6.426;2024-01-30T09:10:52;102510.06;;;7.02;100.00
63006;BME280;53704;52.532;6.426;2024-01-30T09:13:18;102511.69;;;7.04;100.00
63006;BME280;53704;52.532;6.426;2024-01-30T09:15:43;102513.03;;;7.12;100.00
63006;BME280;53704;52.532;6.426;2024-01-30T09:18:09;102517.97;;;7.18;100.00
63006;BME280;53704;52.532;6.426;2024-01-30T09:20:34;102518.44;;;7.24;100.00
63006;BME280;53704;52.532;6.426;2024-01-30T09:23:00;102517.16;;;7.30;100.00
63006;BME280;53704;52.532;6.426;2024-01-30T09:25:25;102524.44;;;7.28;100.00
63006;BME280;53704;52.532;6.426;2024-01-30T09:27:51;102520.97;;;7.40;100.00
63006;BME280;53704;52.532;6.426;2024-01-30T09:30:17;102517.41;;;7.40;100.00
63006;BME280;53704;52.532;6.426;2024-01-30T09:32:42;102523.13;;;7.48;100.00
63006;BME280;53704;52.532;6.426;2024-01-30T09:35:08;102518.53;;;7.50;100.00
63006;BME280;53704;52.532;6.426;2024-01-30T09:37:34;102511.91;;;7.56;100.00
63006;BME280;53704;52.532;6.426;2024-01-30T09:39:59;102514.94;;;7.64;100.00
63006;BME280;53704;52.532;6.426;2024-01-30T09:42:46;102515.25;;;7.72;100.00
63006;BME280;53704;52.532;6.426;2024-01-30T09:45:13;102514.94;;;7.77;100.00
63006;BME280;53704;52.532;6.426;2024-01-30T09:47:43;102516.25;;;7.84;100.00
63006;BME280;53704;52.532;6.426;2024-01-30T09:50:10;102521.38;;;7.87;100.00
63006;BME280;53704;52.532;6.426;2024-01-30T09:52:36;102519.38;;;7.91;100.00
63006;BME280;53704;52.532;6.426;2024-01-30T09:55:02;102515.19;;;8.00;100.00
63006;BME280;53704;52.532;6.426;2024-01-30T09:57:28;102522.41;;;7.99;100.00
63006;BME280;53704;52.532;6.426;2024-01-30T09:59:54;102516.72;;;8.04;100.00
63006;BME280;53704;52.532;6.426;2024-01-30T10:02:20;102516.09;;;8.13;100.00
63006;BME280;53704;52.532;6.426;2024-01-30T10:04:50;102514.78;;;8.19;100.00
63006;BME280;53704;52.532;6.426;2024-01-30T10:07:16;102512.00;;;8.20;100.00
63006;BME280;53704;52.532;6.426;2024-01-30T10:09:42;102511.34;;;8.29;100.00
63006;BME280;53704;52.532;6.426;2024-01-30T10:12:08;102515.97;;;8.27;100.00
63006;BME280;53704;52.532;6.426;2024-01-30T10:14:38;102512.97;;;8.32;100.00
63006;BME280;53704;52.532;6.426;2024-01-30T10:17:09;102524.34;;;8.36;100.00
63006;BME280;53704;52.532;6.426;2024-01-30T10:19:44;102515.69;;;8.45;100.00
63006;BME280;53704;52.532;6.426;2024-01-30T10:22:10;102519.00;;;8.48;100.00
63006;BME280;53704;52.532;6.426;2024-01-30T10:24:35;102517.81;;;8.53;100.00
63006;BME280;53704;52.532;6.426;2024-01-30T10:27:01;102517.06;;;8.50;100.00
63006;BME280;53704;52.532;6.426;2024-01-30T10:29:27;102509.22;;;8.60;100.00
63006;BME280;53704;52.532;6.426;2024-01-30T10:32:04;102517.19;;;8.62;100.00
63006;BME280;53704;52.532;6.426;2024-01-30T10:34:30;102515.44;;;8.61;100.00
63006;BME280;53704;52.532;6.426;2024-01-30T10:37:22;102509.72;;;8.78;100.00
63006;BME280;53704;52.532;6.426;2024-01-30T10:39:52;102517.13;;;8.87;100.00
63006;BME280;53704;52.532;6.426;2024-01-30T10:42:18;102522.38;;;8.89;100.00
63006;BME280;53704;52.532;6.426;2024-01-30T10:44:48;102520.94;;;8.96;100.00
63006;BME280;53704;52.532;6.426;2024-01-30T10:47:18;102514.38;;;9.00;100.00
63006;BME280;53704;52.532;6.426;2024-01-30T10:49:47;102522.25;;;8.91;100.00
63006;BME280;53704;52.532;6.426;2024-01-30T10:52:13;102520.50;;;9.02;100.00
63006;BME280;53704;52.532;6.426;2024-01-30T10:54:44;102520.69;;;9.12;100.00
63006;BME280;53704;52.532;6.426;2024-01-30T10:57:11;102522.84;;;9.07;100.00
63006;BME280;53704;52.532;6.426;2024-01-30T10:59:38;102531.66;;;9.09;100.00
63006;BME280;53704;52.532;6.426;2024-01-30T11:02:04;102535.09;;;9.11;100.00
63006;BME280;53704;52.532;6.426;2024-01-30T11:04:42;102530.25;;;9.16;100.00
63006;BME280;53704;52.532;6.426;2024-01-30T11:07:17;102535.56;;;9.29;100.00
63006;BME280;53704;52.532;6.426;2024-01-30T11:09:50;102537.75;;;9.24;100.00
63006;BME280;53704;52.532;6.426;2024-01-30T11:12:16;102538.03;;;9.32;100.00
63006;BME280;53704;52.532;6.426;2024-01-30T11:14:41;102524.47;;;9.34;100.00
63006;BME280;53704;52.532;6.426;2024-01-30T11:17:09;102540.16;;;9.40;100.00
63006;BME280;53704;52.532;6.426;2024-01-30T11:19:35;102541.41;;;9.47;100.00
63006;BME280;53704;52.532;6.426;2024-01-30T11:22:00;102542.84;;;9.40;100.00
63006;BME280;53704;52.532;6.426;2024-01-30T11:24:27;102543.63;;;9.53;100.00
63006;BME280;53704;52.532;6.426;2024-01-30T11:26:56;102534.94;;;9.50;100.00
63006;BME280;53704;52.532;6.426;2024-01-30T11:29:27;102531.91;;;9.54;100.00
63006;BME280;53704;52.532;6.426;2024-01-30T11:31:57;102536.72;;;9.62;100.00
63006;BME280;53704;52.532;6.426;2024-01-30T11:34:23;102539.16;;;9.65;100.00
63006;BME280;53704;52.532;6.426;2024-01-30T11:36:55;102520.38;;;9.76;100.00
63006;BME280;53704;52.532;6.426;2024-01-30T11:39:24;102525.03;;;9.74;100.00
63006;BME280;53704;52.532;6.426;2024-01-30T11:41:51;102539.28;;;9.64;100.00
63006;BME280;53704;52.532;6.426;2024-01-30T11:44:18;102534.19;;;9.72;100.00
63006;BME280;53704;52.532;6.426;2024-01-30T11:46:45;102526.72;;;9.75;100.00
63006;BME280;53704;52.532;6.426;2024-01-30T11:49:10;102527.25;;;9.81;100.00
63006;BME280;53704;52.532;6.426;2024-01-30T11:51:36;102521.09;;;9.78;100.00
63006;BME280;53704;52.532;6.426;2024-01-30T11:54:04;102517.81;;;9.75;100.00
63006;BME280;53704;52.532;6.426;2024-01-30T11:56:30;102507.97;;;9.87;100.00
63006;BME280;53704;52.532;6.426;2024-01-30T11:58:55;102516.53;;;9.92;100.00
63006;BME280;53704;52.532;6.426;2024-01-30T12:01:20;102515.59;;;10.04;100.00
63006;BME280;53704;52.532;6.426;2024-01-30T12:03:50;102517.03;;;10.08;100.00
63006;BME280;53704;52.532;6.426;2024-01-30T12:06:15;102524.38;;;10.06;100.00
63006;BME280;53704;52.532;6.426;2024-01-30T12:08:41;102522.91;;;10.13;100.00
63006;BME280;53704;52.532;6.426;2024-01-30T12:11:07;102514.59;;;10.17;100.00
63006;BME280;53704;52.532;6.426;2024-01-30T12:13:33;102512.31;;;10.23;100.00
63006;BME280;53704;52.532;6.426;2024-01-30T12:15:59;102516.34;;;10.29;100.00
63006;BME280;53704;52.532;6.426;2024-01-30T12:18:26;102508.38;;;10.27;100.00
63006;BME280;53704;52.532;6.426;2024-01-30T12:21:00;102506.03;;;10.23;100.00
63006;BME280;53704;52.532;6.426;2024-01-30T12:23:29;102506.28;;;10.20;100.00
63006;BME280;53704;52.532;6.426;2024-01-30T12:25:54;102508.97;;;10.20;100.00
63006;BME280;53704;52.532;6.426;2024-01-30T12:28:20;102503.34;;;10.23;100.00
63006;BME280;53704;52.532;6.426;2024-01-30T12:30:46;102506.75;;;10.13;100.00
63006;BME280;53704;52.532;6.426;2024-01-30T12:33:17;102510.47;;;10.24;100.00
63006;BME280;53704;52.532;6.426;2024-01-30T12:35:48;102512.03;;;10.15;100.00
63006;BME280;53704;52.532;6.426;2024-01-30T12:38:14;102514.72;;;10.15;100.00
63006;BME280;53704;52.532;6.426;2024-01-30T12:40:40;102516.22;;;10.19;100.00
63006;BME280;53704;52.532;6.426;2024-01-30T12:43:05;102535.66;;;10.23;100.00
63006;BME280;53704;52.532;6.426;2024-01-30T12:45:31;102526.72;;;10.22;100.00